createdAt,value
2019-01-10T00:00:08.684Z,0
2019-01-10T00:01:08.096Z,0
2019-01-10T00:02:09.511Z,0
2019-01-10T00:03:09.638Z,0
2019-01-10T00:04:11.043Z,0
2019-01-10T00:05:11.523Z,0
2019-01-10T00:06:11.654Z,0
2019-01-10T00:07:13.063Z,0
2019-01-10T00:08:13.470Z,0
2019-01-10T00:09:13.876Z,0
2019-01-10T00:10:16.477Z,0
2019-01-10T00:11:17.445Z,0
2019-01-10T00:12:18.142Z,0
2019-01-10T00:13:18.548Z,0
2019-01-10T00:14:19.512Z,0
2019-01-10T00:15:20.651Z,0
2019-01-10T00:16:21.343Z,0
2019-01-10T00:17:21.851Z,0
2019-01-10T00:18:22.982Z,0
2019-01-10T00:19:24.391Z,0
2019-01-10T00:20:25.077Z,0
2019-01-10T00:21:25.211Z,0
2019-01-10T00:22:26.709Z,0
2019-01-10T00:23:26.929Z,0
2019-01-10T00:24:27.337Z,0
2019-01-10T00:25:27.871Z,0
2019-01-10T00:26:28.003Z,0
2019-01-10T00:27:29.132Z,0
2019-01-10T00:28:30.820Z,0
2019-01-10T00:29:31.263Z,0
2019-01-10T00:30:32.229Z,0
2019-01-10T00:31:32.639Z,0
2019-01-10T00:32:33.603Z,0
2019-01-10T00:33:34.011Z,0
2019-01-10T00:34:34.970Z,0
2019-01-10T00:35:34.511Z,0
2019-01-10T00:36:35.920Z,0
2019-01-10T00:37:36.123Z,0
2019-01-10T00:38:36.534Z,0
2019-01-10T00:39:39.413Z,0
2019-01-10T00:40:38.458Z,0
2019-01-10T00:41:39.433Z,0
2019-01-10T00:42:52.470Z,0
2019-01-10T00:43:52.286Z,0
2019-01-10T00:44:53.447Z,0
2019-01-10T00:45:54.571Z,0
2019-01-10T00:46:56.257Z,0
2019-01-10T00:47:56.764Z,0
2019-01-10T00:48:57.175Z,0
2019-01-10T00:49:57.595Z,0
2019-01-10T00:50:58.006Z,0
2019-01-10T00:51:58.414Z,0
2019-01-10T00:52:59.101Z,0
2019-01-10T00:54:00.768Z,0
2019-01-10T00:55:01.861Z,0
2019-01-10T00:56:02.877Z,0
2019-01-10T00:57:03.843Z,0
2019-01-10T00:58:04.530Z,0
2019-01-10T00:59:05.775Z,0
2019-01-10T01:00:06.016Z,0
2019-01-10T01:01:05.984Z,0
2019-01-10T01:02:06.950Z,0
2019-01-10T01:03:07.637Z,0
2019-01-10T01:04:08.184Z,0
2019-01-10T01:05:08.870Z,0
2019-01-10T01:06:09.280Z,0
2019-01-10T01:07:09.691Z,0
2019-01-10T01:08:09.820Z,0
2019-01-10T01:09:10.955Z,0
2019-01-10T01:10:11.922Z,0
2019-01-10T01:11:12.883Z,0
2019-01-10T01:12:13.094Z,0
2019-01-10T01:13:13.783Z,0
2019-01-10T01:14:15.728Z,0
2019-01-10T01:15:15.418Z,0
2019-01-10T01:16:15.921Z,0
2019-01-10T01:17:18.043Z,0
2019-01-10T01:18:19.451Z,0
2019-01-10T01:19:19.581Z,0
2019-01-10T01:20:20.267Z,0
2019-01-10T01:21:20.777Z,0
2019-01-10T01:22:21.185Z,0
2019-01-10T01:23:21.593Z,0
2019-01-10T01:24:22.426Z,0
2019-01-10T01:25:23.947Z,0
2019-01-10T01:26:23.358Z,0
2019-01-10T01:27:24.052Z,0
2019-01-10T01:28:24.738Z,0
2019-01-10T01:29:25.839Z,0
2019-01-10T01:30:26.908Z,0
2019-01-10T01:31:27.596Z,0
2019-01-10T01:32:28.283Z,0
2019-01-10T01:33:28.977Z,0
2019-01-10T01:34:29.085Z,0
2019-01-10T01:35:29.777Z,0
2019-01-10T01:36:30.910Z,0
2019-01-10T01:37:32.038Z,0
2019-01-10T01:38:33.167Z,0
2019-01-10T01:39:34.298Z,0
2019-01-10T01:40:35.705Z,0
2019-01-10T01:41:36.396Z,0
2019-01-10T01:42:36.802Z,0
2019-01-10T01:43:37.773Z,0
2019-01-10T01:44:38.307Z,0
2019-01-10T01:45:38.439Z,0
2019-01-10T01:46:39.685Z,0
2019-01-10T01:47:40.090Z,0
2019-01-10T01:48:40.510Z,0
2019-01-10T01:49:41.470Z,0
2019-01-10T01:50:42.163Z,0
2019-01-10T01:51:43.137Z,0
2019-01-10T01:52:43.546Z,0
2019-01-10T01:53:43.679Z,0
2019-01-10T01:54:44.494Z,0
2019-01-10T01:55:44.629Z,0
2019-01-10T01:56:46.314Z,0
2019-01-10T01:57:46.733Z,0
2019-01-10T01:58:47.980Z,0
2019-01-10T01:59:48.387Z,0
2019-01-10T02:00:49.075Z,0
2019-01-10T02:01:49.490Z,0
2019-01-10T02:02:49.621Z,0
2019-01-10T02:03:50.863Z,0
2019-01-10T02:04:51.696Z,0
2019-01-10T02:05:52.103Z,0
2019-01-10T02:06:52.513Z,0
2019-01-10T02:07:52.965Z,0
2019-01-10T02:08:54.204Z,0
2019-01-10T02:09:54.894Z,0
2019-01-10T02:10:56.138Z,0
2019-01-10T02:11:56.825Z,0
2019-01-10T02:12:57.233Z,0
2019-01-10T02:13:58.205Z,0
2019-01-10T02:14:58.689Z,0
2019-01-10T02:15:58.822Z,0
2019-01-10T02:17:00.505Z,0
2019-01-10T02:18:01.192Z,0
2019-01-10T02:19:02.876Z,0
2019-01-10T02:20:04.121Z,0
2019-01-10T02:21:04.086Z,0
2019-01-10T02:22:05.053Z,0
2019-01-10T02:23:05.466Z,0
2019-01-10T02:24:06.718Z,0
2019-01-10T02:25:07.119Z,0
2019-01-10T02:26:07.533Z,0
2019-01-10T02:27:08.012Z,0
2019-01-10T02:28:08.704Z,0
2019-01-10T02:29:09.391Z,0
2019-01-10T02:30:11.464Z,0
2019-01-10T02:31:11.167Z,0
2019-01-10T02:32:11.855Z,0
2019-01-10T02:33:12.261Z,0
2019-01-10T02:34:13.807Z,0
2019-01-10T02:35:14.485Z,0
2019-01-10T02:36:15.528Z,0
2019-01-10T02:37:15.776Z,0
2019-01-10T02:38:16.195Z,0
2019-01-10T02:39:17.608Z,0
2019-01-10T02:40:18.587Z,0
2019-01-10T02:41:19.570Z,0
2019-01-10T02:42:20.262Z,0
2019-01-10T02:43:32.863Z,0
2019-01-10T02:44:33.331Z,0
2019-01-10T02:45:33.742Z,0
2019-01-10T02:46:33.913Z,0
2019-01-10T02:47:36.436Z,0
2019-01-10T02:48:36.407Z,0
2019-01-10T02:49:37.373Z,0
2019-01-10T02:50:38.641Z,0
2019-01-10T02:51:38.348Z,0
2019-01-10T02:52:39.312Z,0
2019-01-10T02:53:40.095Z,0
2019-01-10T02:54:41.210Z,0
2019-01-10T02:55:42.178Z,0
2019-01-10T02:56:41.913Z,0
2019-01-10T02:57:42.091Z,0
2019-01-10T02:58:43.349Z,0
2019-01-10T02:59:44.604Z,0
2019-01-10T03:00:44.125Z,0
2019-01-10T03:01:45.381Z,0
2019-01-10T03:02:46.074Z,0
2019-01-10T03:03:47.340Z,0
2019-01-10T03:04:48.451Z,0
2019-01-10T03:05:49.977Z,0
2019-01-10T03:06:49.967Z,0
2019-01-10T03:07:51.242Z,0
2019-01-10T03:08:51.492Z,0
2019-01-10T03:09:52.177Z,0
2019-01-10T03:10:53.146Z,0
2019-01-10T03:11:54.118Z,0
2019-01-10T03:12:55.376Z,0
2019-01-10T03:13:55.070Z,0
2019-01-10T03:14:56.459Z,0
2019-01-10T03:15:56.871Z,0
2019-01-10T03:16:59.395Z,0
2019-01-10T03:17:59.370Z,0
2019-01-10T03:19:00.064Z,0
2019-01-10T03:20:00.257Z,0
2019-01-10T03:21:02.064Z,0
2019-01-10T03:22:01.755Z,0
2019-01-10T03:23:02.441Z,0
2019-01-10T03:24:03.245Z,0
2019-01-10T03:25:03.949Z,0
2019-01-10T03:26:03.925Z,0
2019-01-10T03:27:05.179Z,0
2019-01-10T03:28:05.422Z,0
2019-01-10T03:29:05.944Z,0
2019-01-10T03:30:05.913Z,0
2019-01-10T03:31:08.550Z,0
2019-01-10T03:32:07.299Z,0
2019-01-10T03:33:09.116Z,0
2019-01-10T03:34:08.826Z,0
2019-01-10T03:35:09.228Z,0
2019-01-10T03:36:09.924Z,0
2019-01-10T03:37:10.060Z,0
2019-01-10T03:38:10.754Z,0
2019-01-10T03:39:11.435Z,0
2019-01-10T03:40:13.694Z,0
2019-01-10T03:41:14.673Z,0
2019-01-10T03:42:15.928Z,0
2019-01-10T03:43:16.430Z,0
2019-01-10T03:44:17.667Z,0
2019-01-10T03:45:17.796Z,0
2019-01-10T03:46:18.488Z,0
2019-01-10T03:47:19.449Z,0
2019-01-10T03:48:20.138Z,0
2019-01-10T03:49:20.659Z,0
2019-01-10T03:50:21.075Z,0
2019-01-10T03:51:22.479Z,0
2019-01-10T03:52:23.470Z,0
2019-01-10T03:53:23.878Z,0
2019-01-10T03:54:24.977Z,0
2019-01-10T03:55:25.570Z,0
2019-01-10T03:56:26.363Z,0
2019-01-10T03:57:27.327Z,0
2019-01-10T03:58:28.106Z,0
2019-01-10T03:59:28.806Z,0
2019-01-10T04:00:29.900Z,0
2019-01-10T04:01:30.157Z,0
2019-01-10T04:02:31.679Z,0
2019-01-10T04:03:31.654Z,0
2019-01-10T04:04:32.624Z,0
2019-01-10T04:05:33.299Z,0
2019-01-10T04:06:33.546Z,0
2019-01-10T04:07:34.513Z,0
2019-01-10T04:08:35.202Z,0
2019-01-10T04:09:36.166Z,0
2019-01-10T04:10:36.890Z,0
2019-01-10T04:11:37.879Z,0
2019-01-10T04:12:38.862Z,0
2019-01-10T04:13:38.277Z,0
2019-01-10T04:14:39.960Z,0
2019-01-10T04:15:40.057Z,0
2019-01-10T04:16:41.023Z,0
2019-01-10T04:17:43.099Z,0
2019-01-10T04:18:42.807Z,0
2019-01-10T04:19:44.059Z,0
2019-01-10T04:20:44.489Z,0
2019-01-10T04:21:46.028Z,0
2019-01-10T04:22:47.107Z,0
2019-01-10T04:23:46.799Z,0
2019-01-10T04:24:47.038Z,0
2019-01-10T04:25:47.600Z,0
2019-01-10T04:26:48.568Z,0
2019-01-10T04:27:49.614Z,0
2019-01-10T04:28:50.577Z,0
2019-01-10T04:29:51.834Z,0
2019-01-10T04:30:52.953Z,0
2019-01-10T04:31:53.472Z,0
2019-01-10T04:32:54.166Z,0
2019-01-10T04:33:54.854Z,0
2019-01-10T04:34:55.549Z,0
2019-01-10T04:35:56.972Z,0
2019-01-10T04:36:58.497Z,0
2019-01-10T04:37:59.755Z,0
2019-01-10T04:39:00.279Z,0
2019-01-10T04:40:00.004Z,0
2019-01-10T04:41:00.777Z,0
2019-01-10T04:42:01.465Z,0
2019-01-10T04:43:02.150Z,0
2019-01-10T04:44:14.580Z,0
2019-01-10T04:45:14.683Z,0
2019-01-10T04:46:16.095Z,0
2019-01-10T04:47:17.791Z,0
2019-01-10T04:48:18.200Z,0
2019-01-10T04:49:18.330Z,0
2019-01-10T04:50:19.463Z,0
2019-01-10T04:51:20.163Z,0
2019-01-10T04:52:20.861Z,0
2019-01-10T04:53:21.547Z,0
2019-01-10T04:54:21.680Z,0
2019-01-10T04:55:22.639Z,0
2019-01-10T04:56:23.050Z,0
2019-01-10T04:57:23.464Z,0
2019-01-10T04:58:23.876Z,0
2019-01-10T04:59:24.284Z,0
2019-01-10T05:00:26.299Z,0
2019-01-10T05:01:26.282Z,0
2019-01-10T05:02:26.979Z,0
2019-01-10T05:03:28.355Z,0
2019-01-10T05:04:29.066Z,0
2019-01-10T05:05:29.682Z,0
2019-01-10T05:06:31.299Z,0
2019-01-10T05:07:30.984Z,0
2019-01-10T05:08:31.674Z,0
2019-01-10T05:09:32.373Z,0
2019-01-10T05:10:33.898Z,0
2019-01-10T05:11:34.167Z,0
2019-01-10T05:12:34.676Z,0
2019-01-10T05:13:35.645Z,0
2019-01-10T05:14:36.419Z,0
2019-01-10T05:15:37.509Z,0
2019-01-10T05:16:37.926Z,0
2019-01-10T05:17:39.205Z,0
2019-01-10T05:18:40.544Z,0
2019-01-10T05:19:41.263Z,0
2019-01-10T05:20:41.954Z,0
2019-01-10T05:21:43.192Z,0
2019-01-10T05:22:43.600Z,0
2019-01-10T05:23:44.028Z,0
2019-01-10T05:24:44.715Z,0
2019-01-10T05:25:44.928Z,0
2019-01-10T05:26:45.333Z,0
2019-01-10T05:27:46.576Z,0
2019-01-10T05:28:46.825Z,0
2019-01-10T05:29:48.074Z,0
2019-01-10T05:30:47.482Z,0
2019-01-10T05:31:48.258Z,0
2019-01-10T05:32:49.608Z,0
2019-01-10T05:33:49.575Z,0
2019-01-10T05:34:50.818Z,0
2019-01-10T05:35:50.454Z,0
2019-01-10T05:36:50.865Z,0
2019-01-10T05:37:51.843Z,0
2019-01-10T05:38:52.255Z,0
2019-01-10T05:39:53.776Z,0
2019-01-10T05:40:53.913Z,0
2019-01-10T05:41:55.162Z,0
2019-01-10T05:42:56.471Z,0
2019-01-10T05:43:57.161Z,0
2019-01-10T05:44:57.291Z,0
2019-01-10T05:45:58.734Z,0
2019-01-10T05:46:59.425Z,0
2019-01-10T05:48:00.435Z,0
2019-01-10T05:49:01.690Z,0
2019-01-10T05:50:02.373Z,0
2019-01-10T05:51:02.085Z,0
2019-01-10T05:52:03.708Z,0
2019-01-10T05:53:03.823Z,0
2019-01-10T05:54:04.072Z,0
2019-01-10T05:55:04.483Z,0
2019-01-10T05:56:04.896Z,0
2019-01-10T05:57:05.862Z,0
2019-01-10T05:58:06.641Z,0
2019-01-10T05:59:06.770Z,0
2019-01-10T06:00:08.177Z,0
2019-01-10T06:01:08.867Z,0
2019-01-10T06:02:09.283Z,0
2019-01-10T06:03:09.693Z,0
2019-01-10T06:04:10.662Z,0
2019-01-10T06:05:12.442Z,0
2019-01-10T06:06:13.831Z,0
2019-01-10T06:07:14.239Z,0
2019-01-10T06:08:14.649Z,0
2019-01-10T06:09:15.338Z,0
2019-01-10T06:10:15.747Z,0
2019-01-10T06:11:16.711Z,0
2019-01-10T06:12:16.125Z,0
2019-01-10T06:13:17.644Z,0
2019-01-10T06:14:17.881Z,0
2019-01-10T06:15:18.399Z,0
2019-01-10T06:16:18.598Z,0
2019-01-10T06:17:19.565Z,0
2019-01-10T06:18:19.976Z,0
2019-01-10T06:19:32.410Z,0
2019-01-10T06:20:33.523Z,0
2019-01-10T06:21:35.070Z,0
2019-01-10T06:22:34.757Z,0
2019-01-10T06:23:35.446Z,0
2019-01-10T06:24:35.414Z,0
2019-01-10T06:25:36.388Z,0
2019-01-10T06:26:37.077Z,0
2019-01-10T06:27:37.207Z,0
2019-01-10T06:28:39.172Z,0
2019-01-10T06:29:39.598Z,0
2019-01-10T06:30:40.410Z,0
2019-01-10T06:31:41.541Z,0
2019-01-10T06:32:43.659Z,0
2019-01-10T06:33:44.631Z,0
2019-01-10T06:34:44.314Z,0
2019-01-10T06:35:45.000Z,0
2019-01-10T06:36:45.689Z,0
2019-01-10T06:37:46.433Z,0
2019-01-10T06:38:46.564Z,0
2019-01-10T06:39:47.249Z,0
2019-01-10T06:40:48.380Z,0
2019-01-10T06:41:48.790Z,0
2019-01-10T06:42:48.922Z,0
2019-01-10T06:43:50.340Z,0
2019-01-10T06:44:51.031Z,0
2019-01-10T06:45:51.991Z,0
2019-01-10T06:46:51.404Z,0
2019-01-10T06:47:52.391Z,0
2019-01-10T06:48:53.358Z,0
2019-01-10T06:49:54.043Z,0
2019-01-10T06:50:55.139Z,0
2019-01-10T06:51:55.550Z,0
2019-01-10T06:52:57.715Z,0
2019-01-10T06:53:57.402Z,0
2019-01-10T06:54:58.880Z,0
2019-01-10T06:55:59.289Z,0
2019-01-10T06:56:59.698Z,0
2019-01-10T06:58:00.806Z,0
2019-01-10T06:59:01.215Z,0
2019-01-10T07:00:02.351Z,0
2019-01-10T07:01:03.555Z,0
2019-01-10T07:02:03.689Z,0
2019-01-10T07:03:04.972Z,0
2019-01-10T07:04:05.668Z,0
2019-01-10T07:05:06.357Z,5.63
2019-01-10T07:06:06.775Z,5.63
2019-01-10T07:07:08.295Z,5.63
2019-01-10T07:08:08.999Z,5.63
2019-01-10T07:09:09.704Z,5.63
2019-01-10T07:10:10.385Z,5.63
2019-01-10T07:11:10.928Z,5.63
2019-01-10T07:12:12.335Z,5.63
2019-01-10T07:13:13.023Z,5.63
2019-01-10T07:14:13.992Z,11.25
2019-01-10T07:15:14.127Z,11.25
2019-01-10T07:16:15.265Z,11.25
2019-01-10T07:17:18.598Z,11.25
2019-01-10T07:18:18.005Z,11.25
2019-01-10T07:19:19.418Z,11.25
2019-01-10T07:20:20.832Z,11.25
2019-01-10T07:21:22.108Z,11.25
2019-01-10T07:22:22.519Z,16.88
2019-01-10T07:23:23.207Z,16.88
2019-01-10T07:24:23.907Z,16.88
2019-01-10T07:25:24.050Z,16.88
2019-01-10T07:26:25.465Z,16.88
2019-01-10T07:27:26.432Z,16.88
2019-01-10T07:28:26.855Z,16.88
2019-01-10T07:29:27.559Z,16.88
2019-01-10T07:30:40.715Z,16.88
2019-01-10T07:31:41.338Z,16.88
2019-01-10T07:32:42.119Z,16.88
2019-01-10T07:33:42.256Z,22.5
2019-01-10T07:34:43.952Z,22.5
2019-01-10T07:35:44.925Z,22.5
2019-01-10T07:36:47.101Z,22.5
2019-01-10T07:37:46.078Z,22.5
2019-01-10T07:38:46.764Z,28.13
2019-01-10T07:39:47.737Z,28.13
2019-01-10T07:40:47.713Z,28.13
2019-01-10T07:41:47.540Z,28.13
2019-01-10T07:42:48.251Z,28.13
2019-01-10T07:43:48.680Z,28.13
2019-01-10T07:44:50.316Z,33.75
2019-01-10T07:45:51.423Z,33.75
2019-01-10T07:46:51.913Z,33.75
2019-01-10T07:47:53.612Z,33.75
2019-01-10T07:48:54.035Z,33.75
2019-01-10T07:49:54.190Z,39.38
2019-01-10T07:50:54.598Z,39.38
2019-01-10T07:51:56.249Z,39.38
2019-01-10T07:52:56.746Z,45
2019-01-10T07:53:56.932Z,45
2019-01-10T07:54:57.347Z,45
2019-01-10T07:55:58.594Z,45
2019-01-10T07:56:59.295Z,45
2019-01-10T07:57:59.428Z,50.63
2019-01-10T07:59:00.566Z,50.63
2019-01-10T08:00:02.355Z,50.63
2019-01-10T08:01:03.933Z,50.63
2019-01-10T08:02:03.774Z,50.63
2019-01-10T08:03:04.194Z,50.63
2019-01-10T08:04:04.983Z,50.63
2019-01-10T08:05:05.678Z,50.63
2019-01-10T08:06:06.816Z,50.63
2019-01-10T08:07:09.060Z,50.63
2019-01-10T08:08:09.325Z,50.63
2019-01-10T08:09:09.457Z,50.63
2019-01-10T08:10:11.423Z,56.25
2019-01-10T08:11:11.557Z,56.25
2019-01-10T08:12:12.654Z,56.25
2019-01-10T08:13:13.789Z,61.88
2019-01-10T08:14:15.204Z,61.88
2019-01-10T08:15:15.692Z,61.88
2019-01-10T08:16:16.825Z,61.88
2019-01-10T08:17:19.023Z,67.5
2019-01-10T08:18:19.433Z,73.13
2019-01-10T08:19:20.678Z,73.13
2019-01-10T08:20:21.372Z,73.13
2019-01-10T08:21:21.788Z,73.13
2019-01-10T08:22:35.357Z,73.13
2019-01-10T08:23:36.473Z,73.13
2019-01-10T08:24:36.898Z,67.5
2019-01-10T08:25:56.032Z,67.5
2019-01-10T08:26:07.501Z,67.5
2019-01-10T08:27:03.691Z,67.5
2019-01-10T08:28:04.966Z,67.5
2019-01-10T08:29:04.657Z,67.5
2019-01-10T08:30:05.349Z,67.5
2019-01-10T08:31:05.762Z,73.13
2019-01-10T08:32:07.482Z,73.13
2019-01-10T08:33:08.459Z,78.75
2019-01-10T08:34:09.148Z,78.75
2019-01-10T08:35:09.558Z,78.75
2019-01-10T08:36:10.253Z,84.38
2019-01-10T08:37:13.190Z,84.38
2019-01-10T08:38:11.619Z,90
2019-01-10T08:39:12.587Z,90
2019-01-10T08:40:13.279Z,95.63
2019-01-10T08:41:16.796Z,95.63
2019-01-10T08:42:15.930Z,101.25
2019-01-10T08:43:16.897Z,101.25
2019-01-10T08:44:17.825Z,101.25
2019-01-10T08:45:24.445Z,106.88
2019-01-10T08:45:30.080Z,106.88
2019-01-10T08:46:31.418Z,101.25
2019-01-10T08:47:34.710Z,101.25
2019-01-10T08:48:32.318Z,101.25
2019-01-10T08:49:33.012Z,106.88
2019-01-10T08:50:33.426Z,106.88
2019-01-10T08:51:34.958Z,106.88
2019-01-10T08:52:37.127Z,112.5
2019-01-10T08:53:38.462Z,112.5
2019-01-10T08:54:38.600Z,118.13
2019-01-10T08:55:39.779Z,118.13
2019-01-10T08:56:41.248Z,123.75
2019-01-10T08:57:41.662Z,123.75
2019-01-10T08:58:43.186Z,123.75
2019-01-10T08:59:44.160Z,123.75
2019-01-10T09:00:44.131Z,123.75
2019-01-10T09:01:45.388Z,129.38
2019-01-10T09:02:45.358Z,129.38
2019-01-10T09:03:45.326Z,135
2019-01-10T09:04:46.297Z,129.38
2019-01-10T09:05:46.985Z,135
2019-01-10T09:06:48.089Z,135
2019-01-10T09:07:48.781Z,135
2019-01-10T09:08:49.196Z,135
2019-01-10T09:09:49.888Z,140.63
2019-01-10T09:10:50.307Z,146.25
2019-01-10T09:11:51.531Z,146.25
2019-01-10T09:12:52.504Z,146.25
2019-01-10T09:13:52.645Z,146.25
2019-01-10T09:14:54.679Z,151.88
2019-01-10T09:15:55.369Z,151.88
2019-01-10T09:16:55.910Z,151.88
2019-01-10T09:17:56.609Z,151.88
2019-01-10T09:18:57.583Z,151.88
2019-01-10T09:19:57.999Z,157.5
2019-01-10T09:21:11.439Z,163.13
2019-01-10T09:22:12.642Z,168.75
2019-01-10T09:23:13.102Z,168.75
2019-01-10T09:24:13.517Z,168.75
2019-01-10T09:25:14.491Z,180
2019-01-10T09:26:15.456Z,185.63
2019-01-10T09:27:15.872Z,191.25
2019-01-10T09:28:17.006Z,196.88
2019-01-10T09:29:18.422Z,191.25
2019-01-10T09:30:19.112Z,185.63
2019-01-10T09:31:20.638Z,180
2019-01-10T09:32:20.738Z,174.38
2019-01-10T09:33:21.772Z,168.75
2019-01-10T09:34:27.399Z,163.13
2019-01-10T09:34:34.488Z,163.13
2019-01-10T09:35:35.032Z,163.13
2019-01-10T09:36:35.445Z,163.13
2019-01-10T09:37:36.178Z,151.88
2019-01-10T09:38:37.150Z,157.5
2019-01-10T09:39:38.117Z,151.88
2019-01-10T09:40:39.082Z,146.25
2019-01-10T09:41:39.222Z,146.25
2019-01-10T09:42:41.238Z,146.25
2019-01-10T09:43:41.765Z,146.25
2019-01-10T09:44:41.740Z,146.25
2019-01-10T09:45:45.617Z,151.88
2019-01-10T09:46:46.352Z,157.5
2019-01-10T09:47:46.772Z,168.75
2019-01-10T09:48:47.461Z,168.75
2019-01-10T09:49:47.597Z,174.38
2019-01-10T09:50:49.009Z,185.63
2019-01-10T09:51:49.427Z,191.25
2019-01-10T09:52:51.230Z,202.5
2019-01-10T09:53:51.199Z,208.13
2019-01-10T09:54:51.614Z,213.75
2019-01-10T09:55:52.439Z,213.75
2019-01-10T09:56:52.614Z,219.38
2019-01-10T09:57:54.589Z,213.75
2019-01-10T09:58:54.281Z,213.75
2019-01-10T09:59:56.053Z,219.38
2019-01-10T10:00:57.020Z,225
2019-01-10T10:01:57.182Z,230.63
2019-01-10T10:02:58.544Z,230.63
2019-01-10T10:03:59.520Z,230.63
2019-01-10T10:05:02.402Z,236.25
2019-01-10T10:06:12.257Z,241.88
2019-01-10T10:07:13.120Z,247.5
2019-01-10T10:08:14.549Z,247.5
2019-01-10T10:09:15.458Z,247.5
2019-01-10T10:10:16.491Z,241.88
2019-01-10T10:11:17.185Z,230.63
2019-01-10T10:12:18.150Z,225
2019-01-10T10:13:18.288Z,219.38
2019-01-10T10:14:20.255Z,213.75
2019-01-10T10:15:20.965Z,208.13
2019-01-10T10:16:21.296Z,202.5
2019-01-10T10:17:22.473Z,196.88
2019-01-10T10:18:22.902Z,191.25
2019-01-10T10:19:23.313Z,196.88
2019-01-10T10:20:25.283Z,196.88
2019-01-10T10:21:24.976Z,196.88
2019-01-10T10:22:26.401Z,196.88
2019-01-10T10:23:29.165Z,202.5
2019-01-10T10:24:29.357Z,202.5
2019-01-10T10:25:30.327Z,202.5
2019-01-10T10:26:30.736Z,208.13
2019-01-10T10:27:31.839Z,213.75
2019-01-10T10:28:32.533Z,219.38
2019-01-10T10:29:33.231Z,219.38
2019-01-10T10:30:34.200Z,225
2019-01-10T10:31:35.172Z,225
2019-01-10T10:32:35.308Z,230.63
2019-01-10T10:33:36.726Z,236.25
2019-01-10T10:34:37.437Z,236.25
2019-01-10T10:35:39.155Z,247.5
2019-01-10T10:36:39.294Z,258.75
2019-01-10T10:37:40.117Z,264.38
2019-01-10T10:38:40.817Z,264.38
2019-01-10T10:39:40.957Z,275.63
2019-01-10T10:40:42.378Z,275.63
2019-01-10T10:41:42.792Z,270
2019-01-10T10:42:43.209Z,264.38
2019-01-10T10:43:43.911Z,258.75
2019-01-10T10:44:44.615Z,264.38
2019-01-10T10:45:45.029Z,258.75
2019-01-10T10:46:45.265Z,253.13
2019-01-10T10:47:46.097Z,253.13
2019-01-10T10:48:47.346Z,253.13
2019-01-10T10:49:46.481Z,253.13
2019-01-10T10:50:47.896Z,264.38
2019-01-10T10:51:48.034Z,264.38
2019-01-10T10:52:50.286Z,258.75
2019-01-10T10:53:50.880Z,258.75
2019-01-10T10:54:50.638Z,258.75
2019-01-10T10:55:51.071Z,253.13
2019-01-10T10:56:52.205Z,253.13
2019-01-10T10:57:52.492Z,253.13
2019-01-10T10:58:54.186Z,241.88
2019-01-10T10:59:55.156Z,241.88
2019-01-10T11:00:55.296Z,241.88
2019-01-10T11:01:55.986Z,230.63
2019-01-10T11:02:57.521Z,230.63
2019-01-10T11:03:57.213Z,241.88
2019-01-10T11:04:59.183Z,247.5
2019-01-10T11:06:00.153Z,253.13
2019-01-10T11:07:00.566Z,253.13
2019-01-10T11:08:01.943Z,247.5
2019-01-10T11:09:13.486Z,241.88
2019-01-10T11:10:14.036Z,241.88
2019-01-10T11:11:14.475Z,236.25
2019-01-10T11:12:15.447Z,225
2019-01-10T11:13:15.866Z,230.63
2019-01-10T11:14:16.279Z,225
2019-01-10T11:15:17.488Z,236.25
2019-01-10T11:16:18.368Z,241.88
2019-01-10T11:17:19.107Z,253.13
2019-01-10T11:18:20.171Z,270
2019-01-10T11:19:21.490Z,286.88
2019-01-10T11:20:21.421Z,298.13
2019-01-10T11:21:23.359Z,298.13
2019-01-10T11:22:25.430Z,298.13
2019-01-10T11:23:25.404Z,298.13
2019-01-10T11:24:25.287Z,303.75
2019-01-10T11:25:26.490Z,292.5
2019-01-10T11:26:27.313Z,298.13
2019-01-10T11:27:28.034Z,309.38
2019-01-10T11:28:28.886Z,320.63
2019-01-10T11:29:29.339Z,337.5
2019-01-10T11:30:30.618Z,343.13
2019-01-10T11:31:31.114Z,343.13
2019-01-10T11:32:32.001Z,343.13
2019-01-10T11:33:33.257Z,337.5
2019-01-10T11:34:33.950Z,326.25
2019-01-10T11:35:34.927Z,309.38
2019-01-10T11:36:35.346Z,309.38
2019-01-10T11:37:36.409Z,303.75
2019-01-10T11:38:37.102Z,292.5
2019-01-10T11:39:37.516Z,286.88
2019-01-10T11:40:38.060Z,286.88
2019-01-10T11:41:38.776Z,286.88
2019-01-10T11:42:39.480Z,286.88
2019-01-10T11:43:39.888Z,292.5
2019-01-10T11:44:40.030Z,286.88
2019-01-10T11:45:42.029Z,275.63
2019-01-10T11:46:42.722Z,281.25
2019-01-10T11:47:43.701Z,275.63
2019-01-10T11:48:44.429Z,270
2019-01-10T11:49:45.174Z,264.38
2019-01-10T11:50:45.325Z,253.13
2019-01-10T11:51:46.462Z,247.5
2019-01-10T11:52:47.387Z,236.25
2019-01-10T11:53:47.798Z,230.63
2019-01-10T11:54:50.886Z,219.38
2019-01-10T11:55:49.299Z,208.13
2019-01-10T11:56:50.717Z,202.5
2019-01-10T11:57:51.231Z,202.5
2019-01-10T11:58:51.660Z,208.13
2019-01-10T11:59:52.075Z,208.13
2019-01-10T12:00:52.998Z,213.75
2019-01-10T12:02:07.113Z,213.75
2019-01-10T12:03:20.461Z,213.75
2019-01-10T12:04:19.792Z,213.75
2019-01-10T12:05:19.928Z,208.13
2019-01-10T12:06:20.630Z,202.5
2019-01-10T12:07:21.601Z,196.88
2019-01-10T12:08:21.737Z,191.25
2019-01-10T12:09:22.432Z,185.63
2019-01-10T12:10:23.410Z,185.63
2019-01-10T12:11:24.933Z,180
2019-01-10T12:12:24.624Z,174.38
2019-01-10T12:13:29.282Z,174.38
2019-01-10T12:13:36.789Z,168.75
2019-01-10T12:14:38.555Z,168.75
2019-01-10T12:15:38.255Z,168.75
2019-01-10T12:16:39.404Z,180
2019-01-10T12:17:40.396Z,174.38
2019-01-10T12:18:41.390Z,174.38
2019-01-10T12:19:42.092Z,191.25
2019-01-10T12:20:42.789Z,208.13
2019-01-10T12:21:45.365Z,230.63
2019-01-10T12:22:44.024Z,247.5
2019-01-10T12:23:44.995Z,264.38
2019-01-10T12:24:46.647Z,281.25
2019-01-10T12:25:46.041Z,292.5
2019-01-10T12:26:46.455Z,298.13
2019-01-10T12:27:46.871Z,286.88
2019-01-10T12:28:47.286Z,281.25
2019-01-10T12:29:48.704Z,264.38
2019-01-10T12:30:49.117Z,253.13
2019-01-10T12:31:49.534Z,236.25
2019-01-10T12:32:50.783Z,230.63
2019-01-10T12:33:51.483Z,225
2019-01-10T12:34:52.614Z,208.13
2019-01-10T12:35:53.031Z,202.5
2019-01-10T12:37:05.203Z,191.25
2019-01-10T12:38:06.048Z,185.63
2019-01-10T12:39:06.740Z,174.38
2019-01-10T12:40:07.989Z,163.13
2019-01-10T12:41:07.962Z,163.13
2019-01-10T12:42:11.378Z,157.5
2019-01-10T12:43:10.073Z,151.88
2019-01-10T12:44:14.275Z,151.88
2019-01-10T12:45:12.751Z,151.88
2019-01-10T12:46:13.293Z,157.5
2019-01-10T12:47:12.709Z,168.75
2019-01-10T12:48:16.387Z,180
2019-01-10T12:49:16.327Z,185.63
2019-01-10T12:50:17.465Z,191.25
2019-01-10T12:51:18.633Z,191.25
2019-01-10T12:52:20.048Z,185.63
2019-01-10T12:53:20.739Z,191.25
2019-01-10T12:54:24.008Z,185.63
2019-01-10T12:55:22.533Z,180
2019-01-10T12:56:21.961Z,180
2019-01-10T12:57:22.373Z,174.38
2019-01-10T12:58:23.477Z,168.75
2019-01-10T12:59:24.004Z,168.75
2019-01-10T13:00:25.250Z,163.13
2019-01-10T13:01:26.816Z,168.75
2019-01-10T13:02:26.601Z,174.38
2019-01-10T13:03:27.294Z,174.38
2019-01-10T13:04:27.985Z,174.38
2019-01-10T13:05:29.410Z,168.75
2019-01-10T13:06:30.652Z,157.5
2019-01-10T13:07:31.360Z,151.88
2019-01-10T13:08:31.928Z,140.63
2019-01-10T13:09:35.612Z,135
2019-01-10T13:10:33.839Z,129.38
2019-01-10T13:11:35.637Z,123.75
2019-01-10T13:12:36.699Z,118.13
2019-01-10T13:13:35.402Z,112.5
2019-01-10T13:14:35.819Z,106.88
2019-01-10T13:15:36.230Z,95.63
2019-01-10T13:16:49.674Z,95.63
2019-01-10T13:17:54.639Z,95.63
2019-01-10T13:18:54.688Z,95.63
2019-01-10T13:19:53.659Z,90
2019-01-10T13:20:54.350Z,84.38
2019-01-10T13:21:54.766Z,84.38
2019-01-10T13:22:54.902Z,78.75
2019-01-10T13:23:56.870Z,73.13
2019-01-10T13:24:57.560Z,73.13
2019-01-10T13:26:01.568Z,73.13
2019-01-10T13:27:05.543Z,73.13
2019-01-10T13:28:03.918Z,78.75
2019-01-10T13:29:05.050Z,78.75
2019-01-10T13:30:06.190Z,90
2019-01-10T13:31:07.335Z,95.63
2019-01-10T13:32:07.737Z,101.25
2019-01-10T13:33:09.154Z,101.25
2019-01-10T13:34:14.057Z,101.25
2019-01-10T13:34:25.442Z,101.25
2019-01-10T13:35:22.879Z,95.63
2019-01-10T13:36:22.294Z,95.63
2019-01-10T13:37:22.713Z,90
2019-01-10T13:38:22.848Z,90
2019-01-10T13:39:23.262Z,90
2019-01-10T13:40:24.957Z,90
2019-01-10T13:41:25.663Z,84.38
2019-01-10T13:42:26.352Z,90
2019-01-10T13:43:28.281Z,90
2019-01-10T13:44:29.273Z,95.63
2019-01-10T13:45:32.997Z,101.25
2019-01-10T13:46:30.467Z,106.88
2019-01-10T13:47:31.884Z,112.5
2019-01-10T13:48:32.299Z,118.13
2019-01-10T13:49:32.712Z,118.13
2019-01-10T13:50:34.612Z,123.75
2019-01-10T13:51:36.301Z,118.13
2019-01-10T13:52:35.455Z,118.13